createdAt,value
2019-01-02T00:00:56.820Z,99.99
2019-01-02T00:01:56.773Z,99.99
2019-01-02T00:02:56.744Z,99.99
2019-01-02T00:03:56.704Z,99.99
2019-01-02T00:04:56.667Z,99.99
2019-01-02T00:05:56.594Z,99.99
2019-01-02T00:06:56.546Z,99.99
2019-01-02T00:07:56.511Z,99.99
2019-01-02T00:08:56.451Z,99.99
2019-01-02T00:09:56.446Z,99.99
2019-01-02T00:10:56.377Z,99.99
2019-01-02T00:11:56.334Z,99.99
2019-01-02T00:12:56.318Z,99.99
2019-01-02T00:13:56.244Z,99.99
2019-01-02T00:14:56.195Z,99.99
2019-01-02T00:15:56.158Z,99.99
2019-01-02T00:16:56.114Z,99.99
2019-01-02T00:17:56.065Z,99.99
2019-01-02T00:18:56.040Z,99.99
2019-01-02T00:19:56.012Z,99.99
2019-01-02T00:20:55.937Z,99.99
2019-01-02T00:21:56.738Z,99.99
2019-01-02T00:22:55.864Z,99.99
2019-01-02T00:23:55.810Z,99.99
2019-01-02T00:24:55.747Z,99.99
2019-01-02T00:25:55.706Z,99.99
2019-01-02T00:26:55.652Z,99.99
2019-01-02T00:27:55.614Z,99.99
2019-01-02T00:28:55.576Z,99.99
2019-01-02T00:29:55.523Z,99.99
2019-01-02T00:30:55.555Z,99.99
2019-01-02T00:31:55.441Z,99.99
2019-01-02T00:32:55.409Z,99.99
2019-01-02T00:33:55.344Z,99.99
2019-01-02T00:34:55.311Z,99.99
2019-01-02T00:35:55.288Z,99.99
2019-01-02T00:36:55.221Z,99.99
2019-01-02T00:37:55.166Z,99.99
2019-01-02T00:38:55.112Z,99.99
2019-01-02T00:39:55.085Z,99.99
2019-01-02T00:40:55.060Z,99.99
2019-01-02T00:41:54.992Z,99.99
2019-01-02T00:42:54.983Z,99.99
2019-01-02T00:43:54.905Z,99.99
2019-01-02T00:44:54.860Z,99.99
2019-01-02T00:45:54.841Z,99.99
2019-01-02T00:46:54.769Z,99.99
2019-01-02T00:47:54.721Z,99.99
2019-01-02T00:48:54.712Z,99.99
2019-01-02T00:49:54.642Z,99.99
2019-01-02T00:50:54.600Z,99.99
2019-01-02T00:51:54.588Z,99.99
2019-01-02T00:52:54.505Z,99.99
2019-01-02T00:53:54.473Z,99.99
2019-01-02T00:54:54.400Z,99.99
2019-01-02T00:55:54.368Z,99.99
2019-01-02T00:56:54.324Z,99.99
2019-01-02T00:57:54.274Z,99.99
2019-01-02T00:58:54.223Z,99.99
2019-01-02T00:59:54.198Z,99.99
2019-01-02T01:00:54.136Z,99.99
2019-01-02T01:01:54.098Z,99.99
2019-01-02T01:02:54.060Z,99.99
2019-01-02T01:03:54.014Z,99.99
2019-01-02T01:04:53.977Z,99.99
2019-01-02T01:05:53.905Z,99.99
2019-01-02T01:06:53.870Z,99.99
2019-01-02T01:07:53.827Z,99.99
2019-01-02T01:08:53.780Z,99.99
2019-01-02T01:09:53.770Z,99.99
2019-01-02T01:10:53.717Z,99.99
2019-01-02T01:11:53.637Z,99.99
2019-01-02T01:12:53.624Z,99.99
2019-01-02T01:13:53.554Z,99.99
2019-01-02T01:14:53.512Z,99.99
2019-01-02T01:15:53.460Z,99.99
2019-01-02T01:16:53.418Z,99.99
2019-01-02T01:17:53.391Z,99.99
2019-01-02T01:18:53.328Z,99.99
2019-01-02T01:19:53.285Z,99.99
2019-01-02T01:20:53.236Z,99.99
2019-01-02T01:21:53.222Z,99.99
2019-01-02T01:22:53.153Z,99.99
2019-01-02T01:23:53.121Z,99.99
2019-01-02T01:24:53.106Z,99.99
2019-01-02T01:25:53.021Z,99.99
2019-01-02T01:26:52.985Z,99.99
2019-01-02T01:27:52.928Z,99.99
2019-01-02T01:28:52.881Z,99.99
2019-01-02T01:29:52.840Z,99.99
2019-01-02T01:30:52.796Z,99.99
2019-01-02T01:31:52.746Z,99.99
2019-01-02T01:32:52.762Z,99.99
2019-01-02T01:33:52.659Z,99.99
2019-01-02T01:34:52.629Z,99.99
2019-01-02T01:35:52.605Z,99.99
2019-01-02T01:36:52.529Z,99.99
2019-01-02T01:37:52.478Z,99.99
2019-01-02T01:38:52.450Z,99.99
2019-01-02T01:39:52.416Z,99.99
2019-01-02T01:40:52.386Z,99.99
2019-01-02T01:41:52.296Z,99.99
2019-01-02T01:42:52.270Z,99.99
2019-01-02T01:43:52.225Z,99.99
2019-01-02T01:44:52.175Z,99.99
2019-01-02T01:45:52.124Z,99.99
2019-01-02T01:46:52.092Z,99.99
2019-01-02T01:47:52.055Z,99.99
2019-01-02T01:48:51.997Z,99.99
2019-01-02T01:49:51.948Z,99.99
2019-01-02T01:50:51.902Z,99.99
2019-01-02T01:51:51.888Z,99.99
2019-01-02T01:52:51.885Z,99.99
2019-01-02T01:53:51.770Z,99.99
2019-01-02T01:54:51.722Z,99.99
2019-01-02T01:55:51.680Z,99.99
2019-01-02T01:56:51.644Z,99.99
2019-01-02T01:57:51.615Z,99.99
2019-01-02T01:58:51.543Z,99.99
2019-01-02T01:59:51.496Z,99.99
2019-01-02T02:00:51.468Z,99.99
2019-01-02T02:01:51.418Z,99.99
2019-01-02T02:02:51.375Z,99.99
2019-01-02T02:03:51.322Z,99.99
2019-01-02T02:04:51.301Z,99.99
2019-01-02T02:05:51.258Z,99.99
2019-01-02T02:06:51.204Z,99.99
2019-01-02T02:07:51.127Z,99.99
2019-01-02T02:08:51.121Z,99.99
2019-01-02T02:09:51.061Z,99.99
2019-01-02T02:10:51.013Z,99.99
2019-01-02T02:11:50.965Z,99.99
2019-01-02T02:12:50.918Z,99.99
2019-01-02T02:13:50.878Z,99.99
2019-01-02T02:14:50.830Z,99.99
2019-01-02T02:15:50.795Z,99.99
2019-01-02T02:16:50.754Z,99.99
2019-01-02T02:17:50.679Z,99.99
2019-01-02T02:18:50.669Z,99.99
2019-01-02T02:19:50.642Z,99.99
2019-01-02T02:20:50.575Z,99.99
2019-01-02T02:21:50.510Z,99.99
2019-01-02T02:22:50.481Z,99.99
2019-01-02T02:23:50.463Z,99.99
2019-01-02T02:24:50.386Z,99.99
2019-01-02T02:25:50.346Z,99.99
2019-01-02T02:26:50.291Z,99.99
2019-01-02T02:27:50.250Z,99.99
2019-01-02T02:28:50.217Z,99.99
2019-01-02T02:29:50.148Z,99.99
2019-01-02T02:30:50.129Z,99.99
2019-01-02T02:31:50.051Z,99.99
2019-01-02T02:32:50.037Z,99.99
2019-01-02T02:33:49.975Z,99.99
2019-01-02T02:34:49.949Z,99.99
2019-01-02T02:35:49.898Z,99.99
2019-01-02T02:36:49.855Z,99.99
2019-01-02T02:37:49.807Z,99.99
2019-01-02T02:38:49.766Z,99.99
2019-01-02T02:39:49.704Z,99.99
2019-01-02T02:40:49.684Z,99.99
2019-01-02T02:41:49.617Z,99.99
2019-01-02T02:42:49.572Z,99.99
2019-01-02T02:43:49.519Z,99.99
2019-01-02T02:44:49.488Z,99.99
2019-01-02T02:45:49.434Z,99.99
2019-01-02T02:46:49.390Z,99.99
2019-01-02T02:47:49.965Z,99.99
2019-01-02T02:48:49.305Z,99.99
2019-01-02T02:49:49.275Z,99.99
2019-01-02T02:50:49.225Z,99.99
2019-01-02T02:51:49.170Z,99.99
2019-01-02T02:52:49.144Z,99.99
2019-01-02T02:53:49.082Z,99.99
2019-01-02T02:54:49.069Z,99.99
2019-01-02T02:55:48.999Z,99.99
2019-01-02T02:56:48.964Z,99.99
2019-01-02T02:57:48.899Z,99.99
2019-01-02T02:58:48.877Z,99.99
2019-01-02T02:59:48.823Z,99.99
2019-01-02T03:00:48.794Z,99.99
2019-01-02T03:01:48.794Z,99.99
2019-01-02T03:02:48.803Z,99.99
2019-01-02T03:03:48.627Z,99.99
2019-01-02T03:04:48.636Z,99.99
2019-01-02T03:05:48.539Z,99.99
2019-01-02T03:06:49.563Z,99.99
2019-01-02T03:07:48.468Z,99.99
2019-01-02T03:08:48.433Z,99.99
2019-01-02T03:09:48.360Z,99.99
2019-01-02T03:10:48.328Z,99.99
2019-01-02T03:11:48.272Z,99.99
2019-01-02T03:12:48.257Z,99.99
2019-01-02T03:13:48.208Z,99.99
2019-01-02T03:14:48.178Z,99.99
2019-01-02T03:15:48.108Z,99.99
2019-01-02T03:16:48.061Z,99.99
2019-01-02T03:17:48.008Z,99.99
2019-01-02T03:18:47.984Z,99.99
2019-01-02T03:19:47.916Z,99.99
2019-01-02T03:20:47.876Z,99.99
2019-01-02T03:21:47.841Z,99.99
2019-01-02T03:22:47.820Z,99.99
2019-01-02T03:23:47.765Z,99.99
2019-01-02T03:24:47.720Z,99.99
2019-01-02T03:25:47.645Z,99.99
2019-01-02T03:26:47.611Z,99.99
2019-01-02T03:27:47.586Z,99.99
2019-01-02T03:28:47.541Z,99.99
2019-01-02T03:29:47.473Z,99.99
2019-01-02T03:30:47.457Z,99.99
2019-01-02T03:31:47.395Z,99.99
2019-01-02T03:32:47.339Z,99.99
2019-01-02T03:33:47.293Z,99.99
2019-01-02T03:34:47.260Z,99.99
2019-01-02T03:35:47.210Z,99.99
2019-01-02T03:36:47.189Z,99.99
2019-01-02T03:37:47.123Z,99.99
2019-01-02T03:38:47.088Z,99.99
2019-01-02T03:39:47.033Z,99.99
2019-01-02T03:40:46.987Z,99.99
2019-01-02T03:41:46.934Z,99.99
2019-01-02T03:42:46.898Z,99.99
2019-01-02T03:43:46.845Z,99.99
2019-01-02T03:44:46.816Z,99.99
2019-01-02T03:45:46.758Z,99.99
2019-01-02T03:46:46.719Z,99.99
2019-01-02T03:47:46.700Z,99.99
2019-01-02T03:48:46.632Z,99.99
2019-01-02T03:49:46.581Z,99.99
2019-01-02T03:50:46.541Z,99.99
2019-01-02T03:51:46.528Z,99.99
2019-01-02T03:52:46.461Z,99.99
2019-01-02T03:53:46.399Z,99.99
2019-01-02T03:54:46.370Z,99.99
2019-01-02T03:55:46.356Z,99.99
2019-01-02T03:56:46.311Z,99.99
2019-01-02T03:57:46.245Z,99.99
2019-01-02T03:58:46.193Z,99.99
2019-01-02T03:59:46.138Z,99.99
2019-01-02T04:00:46.125Z,99.99
2019-01-02T04:01:46.058Z,99.99
2019-01-02T04:02:46.016Z,99.99
2019-01-02T04:03:45.998Z,99.99
2019-01-02T04:04:45.924Z,99.99
2019-01-02T04:05:45.880Z,99.99
2019-01-02T04:06:45.837Z,99.99
2019-01-02T04:07:45.793Z,99.99
2019-01-02T04:08:45.747Z,99.99
2019-01-02T04:09:45.709Z,99.99
2019-01-02T04:10:45.674Z,99.99
2019-01-02T04:11:45.613Z,99.99
2019-01-02T04:12:45.563Z,99.99
2019-01-02T04:13:45.515Z,99.99
2019-01-02T04:14:45.479Z,99.99
2019-01-02T04:15:45.445Z,99.99
2019-01-02T04:16:45.403Z,99.99
2019-01-02T04:17:45.349Z,99.99
2019-01-02T04:18:45.322Z,99.99
2019-01-02T04:19:45.267Z,99.99
2019-01-02T04:20:45.213Z,99.99
2019-01-02T04:21:45.191Z,99.99
2019-01-02T04:22:45.121Z,99.99
2019-01-02T04:23:45.088Z,99.99
2019-01-02T04:24:45.048Z,99.99
2019-01-02T04:25:44.991Z,99.99
2019-01-02T04:26:44.950Z,99.99
2019-01-02T04:27:44.937Z,99.99
2019-01-02T04:28:44.874Z,99.99
2019-01-02T04:29:44.836Z,99.99
2019-01-02T04:30:44.787Z,99.99
2019-01-02T04:31:44.731Z,99.99
2019-01-02T04:32:44.699Z,99.99
2019-01-02T04:33:44.626Z,99.99
2019-01-02T04:34:44.601Z,99.99
2019-01-02T04:35:44.544Z,99.99
2019-01-02T04:36:44.512Z,99.99
2019-01-02T04:37:44.476Z,99.99
2019-01-02T04:38:44.433Z,99.99
2019-01-02T04:39:44.375Z,99.99
2019-01-02T04:40:44.344Z,99.99
2019-01-02T04:41:44.273Z,99.99
2019-01-02T04:42:44.265Z,99.99
2019-01-02T04:43:44.192Z,99.99
2019-01-02T04:44:44.156Z,99.99
2019-01-02T04:45:44.108Z,99.99
2019-01-02T04:46:44.046Z,99.99
2019-01-02T04:47:44.009Z,99.99
2019-01-02T04:48:43.957Z,99.99
2019-01-02T04:49:43.934Z,99.99
2019-01-02T04:50:43.924Z,99.99
2019-01-02T04:51:43.833Z,99.99
2019-01-02T04:52:43.804Z,99.99
2019-01-02T04:53:43.751Z,99.99
2019-01-02T04:54:43.692Z,99.99
2019-01-02T04:55:43.674Z,99.99
2019-01-02T04:56:43.615Z,99.99
2019-01-02T04:57:43.565Z,99.99
2019-01-02T04:58:43.527Z,99.99
2019-01-02T04:59:43.488Z,99.99
2019-01-02T05:00:43.441Z,99.99
2019-01-02T05:01:43.376Z,99.99
2019-01-02T05:02:43.334Z,99.99
2019-01-02T05:03:43.301Z,99.99
2019-01-02T05:04:43.266Z,99.99
2019-01-02T05:05:43.203Z,99.99
2019-01-02T05:06:43.159Z,99.99
2019-01-02T05:07:43.113Z,99.99
2019-01-02T05:08:43.066Z,99.99
2019-01-02T05:09:43.020Z,99.99
2019-01-02T05:10:42.980Z,99.99
2019-01-02T05:11:42.929Z,99.99
2019-01-02T05:12:42.887Z,99.99
2019-01-02T05:13:42.849Z,99.99
2019-01-02T05:14:42.803Z,99.99
2019-01-02T05:15:42.747Z,99.99
2019-01-02T05:16:42.711Z,99.99
2019-01-02T05:17:42.673Z,99.99
2019-01-02T05:18:42.634Z,99.99
2019-01-02T05:19:42.569Z,99.99
2019-01-02T05:20:42.516Z,99.99
2019-01-02T05:21:42.493Z,99.99
2019-01-02T05:22:42.454Z,99.99
2019-01-02T05:23:42.395Z,99.99
2019-01-02T05:24:42.337Z,99.99
2019-01-02T05:25:42.316Z,99.99
2019-01-02T05:26:42.301Z,99.99
2019-01-02T05:27:42.207Z,99.99
2019-01-02T05:28:42.162Z,99.99
2019-01-02T05:29:42.134Z,99.99
2019-01-02T05:30:42.090Z,99.99
2019-01-02T05:31:42.072Z,99.99
2019-01-02T05:32:42.030Z,99.99
2019-01-02T05:33:41.950Z,99.99
2019-01-02T05:34:41.905Z,99.99
2019-01-02T05:35:41.849Z,99.99
2019-01-02T05:36:41.822Z,99.99
2019-01-02T05:37:41.818Z,99.99
2019-01-02T05:38:41.747Z,99.99
2019-01-02T05:39:41.697Z,99.99
2019-01-02T05:40:41.620Z,99.99
2019-01-02T05:41:41.593Z,99.99
2019-01-02T05:42:41.567Z,99.99
2019-01-02T05:43:41.485Z,99.99
2019-01-02T05:44:41.502Z,99.99
2019-01-02T05:45:41.416Z,99.99
2019-01-02T05:46:41.371Z,99.99
2019-01-02T05:47:41.322Z,99.99
2019-01-02T05:48:41.292Z,99.99
2019-01-02T05:49:41.221Z,99.99
2019-01-02T05:50:41.195Z,99.99
2019-01-02T05:51:41.144Z,99.99
2019-01-02T05:52:41.104Z,99.99
2019-01-02T05:53:41.043Z,99.99
2019-01-02T05:54:41.013Z,99.99
2019-01-02T05:55:41.002Z,99.99
2019-01-02T05:56:40.935Z,99.99
2019-01-02T05:57:40.863Z,99.99
2019-01-02T05:58:40.828Z,99.99
2019-01-02T05:59:40.802Z,99.99
2019-01-02T06:00:40.720Z,99.99
2019-01-02T06:01:40.686Z,99.99
2019-01-02T06:02:40.637Z,99.99
2019-01-02T06:03:40.690Z,99.99
2019-01-02T06:04:40.564Z,99.99
2019-01-02T06:05:40.508Z,99.99
2019-01-02T06:06:40.469Z,99.99
2019-01-02T06:07:40.417Z,99.99
2019-01-02T06:08:40.396Z,99.99
2019-01-02T06:09:40.322Z,99.99
2019-01-02T06:10:40.302Z,99.99
2019-01-02T06:11:40.226Z,99.99
2019-01-02T06:12:40.185Z,99.99
2019-01-02T06:13:40.139Z,99.99
2019-01-02T06:14:40.101Z,99.99
2019-01-02T06:15:40.062Z,99.99
2019-01-02T06:16:40.020Z,99.99
2019-01-02T06:17:39.952Z,99.99
2019-01-02T06:18:39.922Z,99.99
2019-01-02T06:19:39.902Z,99.99
2019-01-02T06:20:39.851Z,99.99
2019-01-02T06:21:39.785Z,99.99
2019-01-02T06:22:39.741Z,99.99
2019-01-02T06:23:39.706Z,99.99
2019-01-02T06:24:39.638Z,99.99
2019-01-02T06:25:39.609Z,99.99
2019-01-02T06:26:39.567Z,99.99
2019-01-02T06:27:39.518Z,99.99
2019-01-02T06:28:39.484Z,99.99
2019-01-02T06:29:39.440Z,99.99
2019-01-02T06:30:39.380Z,99.99
2019-01-02T06:31:39.359Z,99.99
2019-01-02T06:32:39.304Z,99.99
2019-01-02T06:33:39.269Z,99.99
2019-01-02T06:34:39.211Z,99.99
2019-01-02T06:35:39.187Z,99.99
2019-01-02T06:36:39.125Z,99.99
2019-01-02T06:37:39.068Z,99.99
2019-01-02T06:38:39.024Z,99.99
2019-01-02T06:39:38.986Z,99.99
2019-01-02T06:40:38.925Z,99.99
2019-01-02T06:41:38.904Z,99.99
2019-01-02T06:42:38.863Z,99.99
2019-01-02T06:43:38.827Z,99.99
2019-01-02T06:44:38.758Z,99.99
2019-01-02T06:45:38.725Z,99.99
2019-01-02T06:46:38.688Z,99.99
2019-01-02T06:47:38.624Z,99.99
2019-01-02T06:48:38.580Z,99.99
2019-01-02T06:49:38.519Z,99.99
2019-01-02T06:50:38.477Z,99.99
2019-01-02T06:51:38.450Z,99.99
2019-01-02T06:52:38.397Z,99.99
2019-01-02T06:53:38.344Z,99.99
2019-01-02T06:54:38.302Z,99.99
2019-01-02T06:55:38.335Z,99.99
2019-01-02T06:56:38.223Z,99.99
2019-01-02T06:57:38.164Z,99.99
2019-01-02T06:58:38.121Z,99.99
2019-01-02T06:59:38.094Z,99.99
2019-01-02T07:00:38.032Z,99.99
2019-01-02T07:01:38.016Z,99.99
2019-01-02T07:02:37.963Z,99.99
2019-01-02T07:03:37.947Z,99.99
2019-01-02T07:04:37.866Z,99.99
2019-01-02T07:05:37.830Z,99.99
2019-01-02T07:06:37.782Z,99.99
2019-01-02T07:07:37.726Z,99.99
2019-01-02T07:08:37.691Z,99.99
2019-01-02T07:09:37.683Z,99.99
2019-01-02T07:10:37.598Z,99.99
2019-01-02T07:11:37.546Z,99.99
2019-01-02T07:12:37.482Z,99.99
2019-01-02T07:13:37.453Z,99.99
2019-01-02T07:14:37.450Z,99.99
2019-01-02T07:15:37.369Z,99.99
2019-01-02T07:16:37.324Z,99.99
2019-01-02T07:17:37.278Z,99.99
2019-01-02T07:18:37.225Z,99.99
2019-01-02T07:19:37.189Z,99.99
2019-01-02T07:20:37.138Z,99.99
2019-01-02T07:21:37.095Z,99.99
2019-01-02T07:22:37.063Z,99.99
2019-01-02T07:23:37.007Z,99.99
2019-01-02T07:24:36.953Z,99.99
2019-01-02T07:25:36.911Z,99.99
2019-01-02T07:26:36.868Z,99.99
2019-01-02T07:27:36.840Z,99.99
2019-01-02T07:28:36.780Z,99.99
2019-01-02T07:29:36.732Z,99.99
2019-01-02T07:30:36.708Z,99.99
2019-01-02T07:31:36.642Z,99.99
2019-01-02T07:32:36.602Z,99.99
2019-01-02T07:33:36.564Z,99.99
2019-01-02T07:34:36.516Z,99.99
2019-01-02T07:35:36.454Z,99.99
2019-01-02T07:36:36.422Z,99.99
2019-01-02T07:37:36.414Z,99.99
2019-01-02T07:38:36.333Z,99.99
2019-01-02T07:39:36.286Z,99.99
2019-01-02T07:40:36.262Z,99.99
2019-01-02T07:41:36.224Z,99.99
2019-01-02T07:42:36.159Z,99.99
2019-01-02T07:43:36.565Z,99.99
2019-01-02T07:44:36.059Z,99.99
2019-01-02T07:45:36.013Z,99.99
2019-01-02T07:46:35.995Z,99.99
2019-01-02T07:47:35.931Z,99.99
2019-01-02T07:48:35.893Z,99.99
2019-01-02T07:49:35.831Z,99.99
2019-01-02T07:50:35.791Z,99.99
2019-01-02T07:51:35.743Z,99.99
2019-01-02T07:52:35.733Z,99.99
2019-01-02T07:53:35.672Z,99.99
2019-01-02T07:54:35.611Z,99.99
2019-01-02T07:55:35.563Z,99.99
2019-01-02T07:56:35.530Z,99.99
2019-01-02T07:57:35.471Z,99.99
2019-01-02T07:58:35.436Z,99.99
2019-01-02T07:59:35.384Z,99.99
2019-01-02T08:00:35.365Z,99.99
2019-01-02T08:01:35.289Z,99.99
2019-01-02T08:02:35.256Z,99.99
2019-01-02T08:03:35.212Z,99.99
2019-01-02T08:04:35.169Z,99.99
2019-01-02T08:05:35.140Z,99.99
2019-01-02T08:06:35.071Z,99.99
2019-01-02T08:07:35.032Z,99.99
2019-01-02T08:08:34.990Z,99.99
2019-01-02T08:09:34.940Z,99.99
2019-01-02T08:10:34.929Z,99.99
2019-01-02T08:11:34.846Z,99.99
2019-01-02T08:12:34.948Z,99.99
2019-01-02T08:13:34.971Z,99.99
2019-01-02T08:14:34.729Z,99.99
2019-01-02T08:15:34.674Z,99.99
2019-01-02T08:16:34.625Z,99.99
2019-01-02T08:17:34.586Z,99.99
2019-01-02T08:18:34.529Z,99.99
2019-01-02T08:19:34.525Z,99.99
2019-01-02T08:20:34.458Z,99.99
2019-01-02T08:21:34.417Z,99.99
2019-01-02T08:22:34.392Z,99.99
2019-01-02T08:23:34.325Z,99.99
2019-01-02T08:24:34.273Z,99.99
2019-01-02T08:25:34.231Z,99.99
2019-01-02T08:26:34.327Z,99.99
2019-01-02T08:27:34.129Z,99.99
2019-01-02T08:28:34.132Z,99.99
2019-01-02T08:29:34.067Z,99.99
2019-01-02T08:30:34.018Z,99.99
2019-01-02T08:31:33.968Z,99.99
2019-01-02T08:32:34.113Z,99.99
2019-01-02T08:33:34.018Z,99.99
2019-01-02T08:34:38.655Z,99.99
2019-01-02T08:35:34.046Z,99.99
2019-01-02T08:36:34.066Z,99.99
2019-01-02T08:37:33.702Z,99.99
2019-01-02T08:38:34.981Z,99.99
2019-01-02T08:39:34.035Z,99.99
2019-01-02T08:40:33.736Z,99.99
2019-01-02T08:41:33.679Z,99.99
2019-01-02T08:42:33.670Z,99.99
2019-01-02T08:43:33.516Z,99.99
2019-01-02T08:44:33.671Z,99.99
2019-01-02T08:45:33.335Z,99.99
2019-01-02T08:46:33.298Z,99.99
2019-01-02T08:47:33.274Z,99.99
2019-01-02T08:48:33.202Z,99.99
2019-01-02T08:49:33.151Z,99.99
2019-01-02T08:50:33.172Z,99.99
2019-01-02T08:51:33.130Z,99.99
2019-01-02T08:52:33.036Z,99.99
2019-01-02T08:53:32.991Z,99.99
2019-01-02T08:54:32.952Z,99.99
2019-01-02T08:55:32.902Z,99.99
2019-01-02T08:56:32.876Z,99.99
2019-01-02T08:57:32.821Z,99.99
2019-01-02T08:58:32.767Z,99.99
2019-01-02T08:59:32.731Z,99.99
2019-01-02T09:00:32.696Z,99.99
2019-01-02T09:01:32.642Z,99.99
2019-01-02T09:02:32.591Z,99.99
2019-01-02T09:03:32.582Z,99.99
2019-01-02T09:04:37.523Z,99.99
2019-01-02T09:05:32.468Z,99.99
2019-01-02T09:07:25.685Z,99.99
2019-01-02T09:08:25.524Z,99.99
2019-01-02T09:10:18.514Z,99.99
2019-01-02T09:11:18.525Z,99.99
2019-01-02T09:13:11.671Z,99.99
2019-01-02T09:14:11.450Z,99.99
2019-01-02T09:16:04.658Z,99.99
2019-01-02T09:17:04.463Z,99.99
2019-01-02T09:18:57.562Z,99.99
2019-01-02T09:19:57.549Z,99.99
2019-01-02T09:21:50.974Z,99.99
2019-01-02T09:22:50.904Z,99.99
2019-01-02T09:23:50.836Z,99.99
2019-01-02T09:24:50.800Z,99.99
2019-01-02T09:25:50.757Z,99.99
2019-01-02T09:26:50.709Z,99.99
2019-01-02T09:27:50.675Z,99.99
2019-01-02T09:28:50.628Z,99.99
2019-01-02T09:29:50.573Z,99.99
2019-01-02T09:30:50.527Z,99.99
2019-01-02T09:31:50.474Z,99.99
2019-01-02T09:32:50.458Z,99.99
2019-01-02T09:33:52.280Z,99.99
2019-01-02T09:34:50.356Z,99.99
2019-01-02T09:35:50.874Z,99.99
2019-01-02T09:36:50.268Z,99.99
2019-01-02T09:37:50.258Z,99.99
2019-01-02T09:38:50.206Z,99.99
2019-01-02T09:39:50.161Z,99.99
2019-01-02T09:40:50.268Z,99.99
2019-01-02T09:41:50.125Z,99.99
2019-01-02T09:42:50.029Z,99.99
2019-01-02T09:43:50.031Z,99.99
2019-01-02T09:44:49.927Z,99.99
2019-01-02T09:45:49.886Z,98.39
2019-01-02T09:46:49.905Z,99.63
2019-01-02T09:47:49.888Z,99.15
2019-01-02T09:48:49.798Z,97.16
2019-01-02T09:49:49.774Z,98.07
2019-01-02T09:50:49.673Z,98.30
2019-01-02T09:51:49.694Z,94.98
2019-01-02T09:52:49.589Z,93.84
2019-01-02T09:53:49.559Z,93.32
2019-01-02T09:54:49.481Z,92.85
2019-01-02T09:55:49.454Z,95.36
2019-01-02T09:56:49.452Z,94.51
2019-01-02T09:57:49.402Z,95.36
2019-01-02T09:58:49.385Z,94.79
2019-01-02T09:59:49.282Z,94.98
2019-01-02T10:00:49.247Z,94.42
2019-01-02T10:01:49.200Z,94.42
2019-01-02T10:02:49.158Z,94.32
2019-01-02T10:03:49.104Z,92.99
2019-01-02T10:04:49.096Z,93.27
2019-01-02T10:05:49.020Z,93.65
2019-01-02T10:06:49.001Z,93.99
2019-01-02T10:07:48.936Z,92.47
2019-01-02T10:08:48.907Z,91.24
2019-01-02T10:09:48.872Z,91.95
2019-01-02T10:10:48.791Z,92.38
2019-01-02T10:11:48.746Z,94.51
2019-01-02T10:12:48.703Z,94.65
2019-01-02T10:13:48.669Z,93.37
2019-01-02T10:14:48.635Z,92.94
2019-01-02T10:15:48.580Z,92.09
2019-01-02T10:16:48.538Z,90.71
2019-01-02T10:17:48.481Z,88.86
2019-01-02T10:18:48.458Z,84.45
2019-01-02T10:19:48.403Z,84.55
2019-01-02T10:20:48.411Z,87.25
2019-01-02T10:21:48.341Z,87.63
2019-01-02T10:22:48.289Z,88.39
2019-01-02T10:23:48.241Z,90.00
2019-01-02T10:24:48.217Z,88.54
2019-01-02T10:25:48.154Z,89.67
2019-01-02T10:26:48.102Z,90.34
2019-01-02T10:27:48.096Z,91.24
2019-01-02T10:28:48.061Z,90.81
2019-01-02T10:29:47.975Z,91.28
2019-01-02T10:30:47.936Z,91.61
2019-01-02T10:31:47.915Z,90.67
2019-01-02T10:32:47.896Z,89.15
2019-01-02T10:33:47.865Z,89.81
2019-01-02T10:34:47.783Z,90.00
2019-01-02T10:35:47.746Z,89.53
2019-01-02T10:36:47.683Z,88.96
2019-01-02T10:37:47.666Z,87.63
2019-01-02T10:38:47.603Z,88.10
2019-01-02T10:39:47.556Z,89.15
2019-01-02T10:40:47.513Z,88.01
2019-01-02T10:41:47.502Z,87.45
2019-01-02T10:42:47.439Z,86.78
2019-01-02T10:43:47.401Z,86.40
2019-01-02T10:44:47.364Z,86.40
2019-01-02T10:45:47.309Z,84.92
2019-01-02T10:46:47.281Z,83.26
2019-01-02T10:47:47.275Z,82.74
2019-01-02T10:48:47.185Z,84.45
2019-01-02T10:49:47.149Z,84.50
2019-01-02T10:50:47.101Z,86.78
2019-01-02T10:51:47.077Z,87.40
2019-01-02T10:52:47.009Z,87.40
2019-01-02T10:53:46.982Z,88.54
2019-01-02T10:54:46.937Z,89.96
2019-01-02T10:55:46.895Z,90.43
2019-01-02T10:56:46.856Z,90.81
2019-01-02T10:57:46.802Z,92.80
2019-01-02T10:58:46.884Z,93.75
2019-01-02T10:59:46.742Z,93.89
2019-01-02T11:00:46.710Z,94.27
2019-01-02T11:01:46.646Z,96.73
2019-01-02T11:02:46.604Z,97.21
2019-01-02T11:03:46.578Z,99.48
2019-01-02T11:04:46.527Z,99.20
2019-01-02T11:05:46.467Z,99.99
2019-01-02T11:06:46.418Z,99.99
2019-01-02T11:07:46.405Z,99.99
2019-01-02T11:08:46.337Z,99.99
2019-01-02T11:09:46.312Z,99.99
2019-01-02T11:10:46.255Z,99.99
2019-01-02T11:11:46.205Z,99.99
2019-01-02T11:12:46.161Z,99.99
2019-01-02T11:13:46.124Z,99.99
2019-01-02T11:14:46.082Z,99.99
2019-01-02T11:15:46.027Z,99.99
2019-01-02T11:16:45.997Z,97.06
2019-01-02T11:17:45.944Z,97.01
2019-01-02T11:18:45.907Z,99.99
2019-01-02T11:19:45.863Z,99.66
2019-01-02T11:20:45.814Z,94.65
2019-01-02T11:21:45.807Z,95.78
2019-01-02T11:22:45.712Z,92.29
2019-01-02T11:23:45.688Z,89.54
2019-01-02T11:24:45.696Z,89.83
2019-01-02T11:25:45.577Z,88.69
2019-01-02T11:26:45.541Z,88.41
2019-01-02T11:27:45.563Z,90.68
2019-01-02T11:28:45.595Z,88.50
2019-01-02T11:29:45.439Z,90.77
2019-01-02T11:30:45.384Z,89.64
2019-01-02T11:31:45.324Z,90.91
2019-01-02T11:32:45.316Z,92.14
2019-01-02T11:33:45.245Z,92.33
2019-01-02T11:34:45.175Z,94.60
2019-01-02T11:35:45.169Z,94.32
2019-01-02T11:36:45.093Z,99.99
2019-01-02T11:37:45.037Z,99.99
2019-01-02T11:38:45.003Z,99.99
2019-01-02T11:39:44.952Z,99.99
2019-01-02T11:40:44.990Z,99.99
2019-01-02T11:41:44.869Z,99.99
2019-01-02T11:42:44.807Z,99.99
2019-01-02T11:43:44.805Z,99.99
2019-01-02T11:44:44.735Z,99.99
2019-01-02T11:45:44.696Z,99.99
2019-01-02T11:46:44.647Z,99.99
2019-01-02T11:47:44.588Z,99.99
2019-01-02T11:48:44.554Z,99.99
2019-01-02T11:49:44.495Z,99.99
2019-01-02T11:50:44.450Z,99.99
2019-01-02T11:51:44.490Z,99.99
2019-01-02T11:52:44.367Z,99.99
2019-01-02T11:53:44.310Z,99.99
2019-01-02T11:54:44.262Z,99.99
2019-01-02T11:55:44.234Z,99.99
2019-01-02T11:56:44.193Z,99.99
2019-01-02T11:57:44.145Z,99.99
2019-01-02T11:58:49.791Z,99.99
2019-01-02T11:59:44.081Z,99.99
2019-01-02T12:00:44.006Z,99.99
2019-01-02T12:01:43.950Z,99.99
2019-01-02T12:02:43.915Z,99.99
2019-01-02T12:03:43.904Z,99.99
2019-01-02T12:04:43.829Z,99.99
2019-01-02T12:05:43.895Z,99.99
2019-01-02T12:06:43.781Z,99.99
2019-01-02T12:07:43.705Z,99.99
2019-01-02T12:08:43.661Z,99.99
2019-01-02T12:09:43.620Z,99.99
2019-01-02T12:10:43.573Z,99.99
2019-01-02T12:11:43.524Z,99.99
2019-01-02T12:12:43.483Z,99.99
2019-01-02T12:13:43.432Z,99.99
2019-01-02T12:14:43.384Z,99.99
2019-01-02T12:15:43.359Z,99.99
2019-01-02T12:16:43.314Z,99.99
2019-01-02T12:17:43.256Z,99.99
2019-01-02T12:18:43.233Z,98.44
2019-01-02T12:19:43.192Z,99.99
2019-01-02T12:20:43.142Z,99.99
2019-01-02T12:21:43.083Z,96.26
2019-01-02T12:22:43.063Z,94.74
2019-01-02T12:23:43.006Z,99.39
2019-01-02T12:24:42.957Z,99.99
2019-01-02T12:25:42.905Z,99.39
2019-01-02T12:26:42.877Z,99.99
2019-01-02T12:27:42.879Z,99.99
2019-01-02T12:28:42.776Z,99.99
2019-01-02T12:29:42.762Z,99.99
2019-01-02T12:30:42.711Z,99.99
2019-01-02T12:31:42.655Z,99.99
2019-01-02T12:32:42.606Z,99.99
2019-01-02T12:33:42.558Z,99.99
2019-01-02T12:34:42.507Z,99.99
2019-01-02T12:35:42.476Z,99.99
2019-01-02T12:36:42.448Z,99.99
2019-01-02T12:37:42.400Z,99.99
2019-01-02T12:38:42.322Z,99.99
2019-01-02T12:39:42.299Z,99.99
2019-01-02T12:40:42.257Z,99.99
2019-01-02T12:41:42.200Z,99.99
2019-01-02T12:42:42.162Z,99.99
2019-01-02T12:43:42.721Z,99.99
2019-01-02T12:44:42.095Z,99.99
2019-01-02T12:45:42.035Z,99.99
2019-01-02T12:46:41.989Z,99.99
2019-01-02T12:47:41.949Z,99.99
2019-01-02T12:48:41.907Z,99.99
2019-01-02T12:49:41.846Z,99.99
2019-01-02T12:50:41.810Z,99.77
2019-01-02T12:51:41.790Z,99.20
2019-01-02T12:52:41.736Z,97.97
2019-01-02T12:53:43.836Z,98.72
2019-01-02T12:54:41.675Z,97.87
2019-01-02T12:55:41.587Z,97.40
2019-01-02T12:56:41.542Z,97.40
2019-01-02T12:57:41.499Z,95.12